Tropical Cyclones
[Index]
Main Index Home Page Stock Weather Photos Extreme Storms Discussion Storm News and Storm Chasing Reports Tropical Cyclones / Hurricanes / Typhoons Weather Data and Links Wild Fires / Bushfires Weather Observation Techniques Weather Picture Catalogue Tornado Pictures and Reports Stock Video Footage and DVDs for sale
Season 1989-1990 Tropical Cyclone PEDRO Track Map
Season 1989-1990 Summaries: [BoM-AU] [JTWC-AU] [JTWC-SIO] [JTWC-SPAC] [JTWC-SH]
<<- Previous TC | JTWC 1989-1990 Season | Next TC ->>

click for intensity scale information  Lat/long Grid: Show Hide

 Date Labels: Show Hide

Joint Typhoon Warning Centre Cyclone Data

Name: PEDRO

04 Nov 1989 18:00 UTC to 13 Nov 1989 12:00 UTC

    date/time    lat    long     hPa   cat  kts
1989-11-04 18    7.0    99.9                  15          
1989-11-05 00    7.0    99.2                  15          
1989-11-05 06    7.0    98.6                  15          
1989-11-05 12    7.0    98.6                  15          
1989-11-05 18    7.0    97.6                  20          
1989-11-06 00    7.0    97.1                  20          
1989-11-06 06    7.0    96.6                  20          
1989-11-06 12    7.0    96.3                  20          
1989-11-06 18    6.8    96.0                  20          
1989-11-07 00    6.6    95.7                  20          
1989-11-07 06    6.2    95.3                  20          
1989-11-07 12    6.0    94.7                  20          
1989-11-07 18    6.3    94.2                  20          
1989-11-08 00    6.8    93.7                  20          
1989-11-08 06    7.7    93.6                  25          
1989-11-08 12    8.4    93.9                  25          
1989-11-08 18    9.0    94.2                  30          
1989-11-09 00    9.7    94.4                  30          
1989-11-09 06   10.5    94.5                  35          
1989-11-09 12   11.3    94.9            1     40          
1989-11-09 18   11.8    95.3            1     45          
1989-11-10 00   12.4    95.8            1     45          
1989-11-10 06   12.9    96.0            2     55          
1989-11-10 12   13.3    96.0            2     65          
1989-11-10 18   13.8    96.0            2     65          
1989-11-11 00   14.4    95.9            2     55          
1989-11-11 06   15.0    95.8            1     50          
1989-11-11 12   15.7    95.5            1     45          
1989-11-11 18   16.7    95.2            1     40          
1989-11-12 00   18.1    94.6                  35          
1989-11-12 06   19.5    94.1                  35          
1989-11-12 12   20.1    94.1                  30          
1989-11-12 18   20.3    94.1                  25          
1989-11-13 00   20.7    94.2                  25          
1989-11-13 06   21.0    94.2                  20          
1989-11-13 12   21.5    94.2                  20          
Winds are 1-min average.

Tropical cyclone tracks developed by Michael Bath using data from the Joint Typhoon Warning Centre Best Tracks and Google Maps.


[Australian Severe Weather index] [Copyright Notice] [Email Contacts] [Search This Site] [Privacy Policy]
Document: tropical_cyclone_pedro.htm Updated: 18 September 2016